sensor_id;sensor_type;location;lat;lon;timestamp;P1;durP1;ratioP1;P2;durP2;ratioP2
57443;SDS011;43289;52.962;6.196;2023-09-12T01:24:17;39.95;;;29.92;;
57443;SDS011;43289;52.962;6.196;2023-09-12T01:29:23;64.15;;;33.22;;
57443;SDS011;43289;52.962;6.196;2023-09-12T01:31:50;53.20;;;25.38;;
57443;SDS011;43289;52.962;6.196;2023-09-12T01:34:16;63.78;;;24.13;;
57443;SDS011;43289;52.962;6.196;2023-09-12T01:36:44;38.67;;;18.63;;
57443;SDS011;43289;52.962;6.196;2023-09-12T01:39:10;122.57;;;27.67;;
57443;SDS011;43289;52.962;6.196;2023-09-12T01:41:42;168.85;;;30.42;;
57443;SDS011;43289;52.962;6.196;2023-09-12T01:44:16;40.50;;;21.65;;
57443;SDS011;43289;52.962;6.196;2023-09-12T01:46:43;34.58;;;21.20;;
57443;SDS011;43289;52.962;6.196;2023-09-12T01:49:09;34.95;;;24.48;;
57443;SDS011;43289;52.962;6.196;2023-09-12T01:51:35;43.20;;;27.77;;
57443;SDS011;43289;52.962;6.196;2023-09-12T01:54:02;43.88;;;29.27;;
57443;SDS011;43289;52.962;6.196;2023-09-12T01:56:29;62.20;;;32.00;;
57443;SDS011;43289;52.962;6.196;2023-09-12T01:58:56;73.70;;;35.88;;
57443;SDS011;43289;52.962;6.196;2023-09-12T02:01:22;52.70;;;33.53;;
57443;SDS011;43289;52.962;6.196;2023-09-12T02:03:52;59.08;;;34.22;;
57443;SDS011;43289;52.962;6.196;2023-09-12T02:06:18;150.20;;;55.63;;
57443;SDS011;43289;52.962;6.196;2023-09-12T02:08:45;225.85;;;72.75;;
57443;SDS011;43289;52.962;6.196;2023-09-12T02:11:14;78.85;;;40.70;;
57443;SDS011;43289;52.962;6.196;2023-09-12T02:13:40;181.93;;;65.97;;
57443;SDS011;43289;52.962;6.196;2023-09-12T02:16:06;54.65;;;34.78;;
57443;SDS011;43289;52.962;6.196;2023-09-12T02:18:32;61.20;;;34.85;;
57443;SDS011;43289;52.962;6.196;2023-09-12T02:20:58;70.85;;;38.35;;
57443;SDS011;43289;52.962;6.196;2023-09-12T02:23:24;87.25;;;35.50;;
57443;SDS011;43289;52.962;6.196;2023-09-12T02:25:53;56.72;;;28.80;;
57443;SDS011;43289;52.962;6.196;2023-09-12T02:28:21;119.18;;;37.60;;
57443;SDS011;43289;52.962;6.196;2023-09-12T02:30:47;370.27;;;80.72;;
57443;SDS011;43289;52.962;6.196;2023-09-12T02:33:13;686.85;;;131.73;;
57443;SDS011;43289;52.962;6.196;2023-09-12T02:35:39;487.38;;;104.05;;
57443;SDS011;43289;52.962;6.196;2023-09-12T02:38:05;129.43;;;43.17;;
57443;SDS011;43289;52.962;6.196;2023-09-12T02:40:31;90.30;;;36.95;;
57443;SDS011;43289;52.962;6.196;2023-09-12T02:42:57;64.07;;;32.92;;
57443;SDS011;43289;52.962;6.196;2023-09-12T02:45:23;89.18;;;41.83;;
57443;SDS011;43289;52.962;6.196;2023-09-12T02:47:50;68.80;;;36.85;;
57443;SDS011;43289;52.962;6.196;2023-09-12T02:50:16;61.45;;;34.80;;
57443;SDS011;43289;52.962;6.196;2023-09-12T02:52:42;56.30;;;35.60;;
57443;SDS011;43289;52.962;6.196;2023-09-12T02:55:08;53.90;;;35.30;;
57443;SDS011;43289;52.962;6.196;2023-09-12T02:57:34;62.17;;;36.92;;
57443;SDS011;43289;52.962;6.196;2023-09-12T03:00:00;92.53;;;46.08;;
57443;SDS011;43289;52.962;6.196;2023-09-12T03:02:26;69.97;;;40.47;;
57443;SDS011;43289;52.962;6.196;2023-09-12T03:04:54;83.00;;;42.83;;
57443;SDS011;43289;52.962;6.196;2023-09-12T03:07:20;75.80;;;40.50;;
57443;SDS011;43289;52.962;6.196;2023-09-12T03:09:49;71.47;;;40.35;;
57443;SDS011;43289;52.962;6.196;2023-09-12T03:12:15;79.47;;;43.05;;
57443;SDS011;43289;52.962;6.196;2023-09-12T03:14:41;77.53;;;42.28;;
57443;SDS011;43289;52.962;6.196;2023-09-12T03:17:08;76.93;;;42.22;;
57443;SDS011;43289;52.962;6.196;2023-09-12T03:19:34;91.50;;;46.33;;
57443;SDS011;43289;52.962;6.196;2023-09-12T03:22:00;85.13;;;45.25;;
57443;SDS011;43289;52.962;6.196;2023-09-12T03:24:26;156.23;;;62.58;;
57443;SDS011;43289;52.962;6.196;2023-09-12T03:26:54;110.45;;;51.78;;
57443;SDS011;43289;52.962;6.196;2023-09-12T03:29:20;127.55;;;55.55;;
57443;SDS011;43289;52.962;6.196;2023-09-12T03:31:47;73.45;;;42.83;;
57443;SDS011;43289;52.962;6.196;2023-09-12T03:34:13;143.27;;;62.60;;
57443;SDS011;43289;52.962;6.196;2023-09-12T03:36:39;115.78;;;54.25;;
57443;SDS011;43289;52.962;6.196;2023-09-12T03:39:05;98.28;;;52.03;;
57443;SDS011;43289;52.962;6.196;2023-09-12T03:41:34;173.57;;;68.50;;
57443;SDS011;43289;52.962;6.196;2023-09-12T03:44:00;164.52;;;63.38;;
57443;SDS011;43289;52.962;6.196;2023-09-12T03:46:27;89.47;;;50.33;;
57443;SDS011;43289;52.962;6.196;2023-09-12T03:48:53;71.38;;;44.10;;
57443;SDS011;43289;52.962;6.196;2023-09-12T03:51:19;154.55;;;60.38;;
57443;SDS011;43289;52.962;6.196;2023-09-12T03:53:45;92.75;;;49.35;;
57443;SDS011;43289;52.962;6.196;2023-09-12T03:56:13;79.45;;;45.25;;
57443;SDS011;43289;52.962;6.196;2023-09-12T03:58:39;90.63;;;46.90;;
57443;SDS011;43289;52.962;6.196;2023-09-12T04:01:06;240.38;;;69.82;;
57443;SDS011;43289;52.962;6.196;2023-09-12T04:03:32;522.65;;;122.53;;
57443;SDS011;43289;52.962;6.196;2023-09-12T04:05:58;428.88;;;112.75;;
57443;SDS011;43289;52.962;6.196;2023-09-12T04:08:24;626.00;;;130.73;;
57443;SDS011;43289;52.962;6.196;2023-09-12T04:10:50;767.28;;;163.65;;
57443;SDS011;43289;52.962;6.196;2023-09-12T04:13:16;528.58;;;120.65;;
57443;SDS011;43289;52.962;6.196;2023-09-12T04:15:43;857.42;;;174.10;;
57443;SDS011;43289;52.962;6.196;2023-09-12T04:18:12;697.45;;;138.80;;
57443;SDS011;43289;52.962;6.196;2023-09-12T04:20:38;849.15;;;169.98;;
57443;SDS011;43289;52.962;6.196;2023-09-12T04:23:05;751.85;;;152.65;;
57443;SDS011;43289;52.962;6.196;2023-09-12T04:25:31;145.55;;;54.75;;
57443;SDS011;43289;52.962;6.196;2023-09-12T04:27:58;162.02;;;57.33;;
57443;SDS011;43289;52.962;6.196;2023-09-12T04:30:24;531.97;;;116.95;;
57443;SDS011;43289;52.962;6.196;2023-09-12T04:32:50;478.63;;;106.20;;
57443;SDS011;43289;52.962;6.196;2023-09-12T04:35:17;472.10;;;109.57;;
57443;SDS011;43289;52.962;6.196;2023-09-12T04:37:45;131.73;;;51.58;;
57443;SDS011;43289;52.962;6.196;2023-09-12T04:40:11;112.60;;;49.65;;
57443;SDS011;43289;52.962;6.196;2023-09-12T04:42:37;116.47;;;52.17;;
57443;SDS011;43289;52.962;6.196;2023-09-12T04:45:04;124.50;;;49.70;;
57443;SDS011;43289;52.962;6.196;2023-09-12T04:47:30;241.10;;;70.60;;
57443;SDS011;43289;52.962;6.196;2023-09-12T04:49:56;133.70;;;54.25;;
57443;SDS011;43289;52.962;6.196;2023-09-12T04:52:22;88.00;;;47.25;;
57443;SDS011;43289;52.962;6.196;2023-09-12T04:54:48;177.55;;;63.25;;
57443;SDS011;43289;52.962;6.196;2023-09-12T04:57:14;219.48;;;71.60;;
57443;SDS011;43289;52.962;6.196;2023-09-12T04:59:40;540.70;;;132.35;;
57443;SDS011;43289;52.962;6.196;2023-09-12T05:02:06;134.43;;;54.97;;
57443;SDS011;43289;52.962;6.196;2023-09-12T05:04:33;176.43;;;66.07;;
57443;SDS011;43289;52.962;6.196;2023-09-12T05:06:59;121.28;;;56.30;;
57443;SDS011;43289;52.962;6.196;2023-09-12T05:09:25;210.10;;;66.72;;
57443;SDS011;43289;52.962;6.196;2023-09-12T05:11:51;176.52;;;67.18;;
57443;SDS011;43289;52.962;6.196;2023-09-12T05:14:17;112.38;;;54.25;;
57443;SDS011;43289;52.962;6.196;2023-09-12T05:16:43;94.13;;;48.90;;
57443;SDS011;43289;52.962;6.196;2023-09-12T05:19:09;112.35;;;53.50;;
57443;SDS011;43289;52.962;6.196;2023-09-12T05:21:36;122.93;;;58.08;;
57443;SDS011;43289;52.962;6.196;2023-09-12T05:24:03;190.10;;;65.90;;
57443;SDS011;43289;52.962;6.196;2023-09-12T05:26:29;130.93;;;59.70;;
57443;SDS011;43289;52.962;6.196;2023-09-12T05:28:55;206.50;;;68.57;;
57443;SDS011;43289;52.962;6.196;2023-09-12T05:31:22;259.90;;;77.15;;
57443;SDS011;43289;52.962;6.196;2023-09-12T05:33:48;264.45;;;82.55;;
57443;SDS011;43289;52.962;6.196;2023-09-12T05:36:14;112.93;;;53.45;;
57443;SDS011;43289;52.962;6.196;2023-09-12T05:38:42;532.03;;;130.02;;
57443;SDS011;43289;52.962;6.196;2023-09-12T05:41:18;485.17;;;119.70;;
57443;SDS011;43289;52.962;6.196;2023-09-12T05:44:10;97.45;;;53.03;;
57443;SDS011;43289;52.962;6.196;2023-09-12T05:46:56;225.40;;;74.72;;
57443;SDS011;43289;52.962;6.196;2023-09-12T06:43:14;107.43;;;51.53;;
57443;SDS011;43289;52.962;6.196;2023-09-12T06:45:41;96.20;;;49.25;;
57443;SDS011;43289;52.962;6.196;2023-09-12T06:48:07;100.00;;;51.75;;
57443;SDS011;43289;52.962;6.196;2023-09-12T06:50:33;149.35;;;62.13;;
57443;SDS011;43289;52.962;6.196;2023-09-12T06:53:00;155.02;;;62.47;;
57443;SDS011;43289;52.962;6.196;2023-09-12T06:55:27;171.75;;;67.65;;
57443;SDS011;43289;52.962;6.196;2023-09-12T06:57:53;146.02;;;60.80;;
57443;SDS011;43289;52.962;6.196;2023-09-12T07:00:19;118.07;;;54.75;;
57443;SDS011;43289;52.962;6.196;2023-09-12T07:02:45;153.48;;;62.10;;
57443;SDS011;43289;52.962;6.196;2023-09-12T07:05:11;111.65;;;56.50;;
57443;SDS011;43289;52.962;6.196;2023-09-12T07:07:37;89.03;;;48.97;;
57443;SDS011;43289;52.962;6.196;2023-09-12T07:10:04;156.15;;;66.43;;
57443;SDS011;43289;52.962;6.196;2023-09-12T07:12:30;142.50;;;63.15;;
57443;SDS011;43289;52.962;6.196;2023-09-12T07:14:58;161.43;;;67.85;;
57443;SDS011;43289;52.962;6.196;2023-09-12T07:17:24;140.73;;;60.95;;
57443;SDS011;43289;52.962;6.196;2023-09-12T07:19:50;144.65;;;64.70;;
57443;SDS011;43289;52.962;6.196;2023-09-12T07:22:16;159.23;;;66.50;;
57443;SDS011;43289;52.962;6.196;2023-09-12T07:24:42;152.68;;;64.80;;
57443;SDS011;43289;52.962;6.196;2023-09-12T07:27:09;134.52;;;61.35;;
57443;SDS011;43289;52.962;6.196;2023-09-12T07:29:35;86.72;;;49.85;;
57443;SDS011;43289;52.962;6.196;2023-09-12T07:32:02;95.30;;;50.50;;
57443;SDS011;43289;52.962;6.196;2023-09-12T07:34:28;114.40;;;57.72;;
57443;SDS011;43289;52.962;6.196;2023-09-12T07:36:54;112.82;;;55.03;;
57443;SDS011;43289;52.962;6.196;2023-09-12T07:39:20;108.03;;;52.72;;
57443;SDS011;43289;52.962;6.196;2023-09-12T07:41:46;121.55;;;59.33;;
57443;SDS011;43289;52.962;6.196;2023-09-12T07:44:12;106.10;;;53.25;;
57443;SDS011;43289;52.962;6.196;2023-09-12T07:46:40;132.77;;;60.42;;
57443;SDS011;43289;52.962;6.196;2023-09-12T07:49:07;111.47;;;56.00;;
57443;SDS011;43289;52.962;6.196;2023-09-12T07:51:34;96.80;;;53.35;;
57443;SDS011;43289;52.962;6.196;2023-09-12T07:54:01;101.97;;;53.65;;
57443;SDS011;43289;52.962;6.196;2023-09-12T07:56:27;100.82;;;55.33;;
57443;SDS011;43289;52.962;6.196;2023-09-12T07:58:53;95.28;;;52.13;;
57443;SDS011;43289;52.962;6.196;2023-09-12T08:01:20;108.55;;;56.78;;
57443;SDS011;43289;52.962;6.196;2023-09-12T08:03:46;157.52;;;67.63;;
57443;SDS011;43289;52.962;6.196;2023-09-12T08:06:13;94.93;;;54.20;;
57443;SDS011;43289;52.962;6.196;2023-09-12T08:08:39;109.15;;;56.38;;
57443;SDS011;43289;52.962;6.196;2023-09-12T08:11:05;103.70;;;54.92;;
57443;SDS011;43289;52.962;6.196;2023-09-12T08:13:31;95.75;;;54.95;;
57443;SDS011;43289;52.962;6.196;2023-09-12T08:15:57;98.80;;;55.20;;
57443;SDS011;43289;52.962;6.196;2023-09-12T08:18:29;100.68;;;57.88;;
57443;SDS011;43289;52.962;6.196;2023-09-12T08:20:56;73.45;;;47.15;;
57443;SDS011;43289;52.962;6.196;2023-09-12T08:23:22;85.82;;;50.85;;
57443;SDS011;43289;52.962;6.196;2023-09-12T08:25:48;77.70;;;49.60;;
57443;SDS011;43289;52.962;6.196;2023-09-12T08:28:14;79.47;;;50.35;;
57443;SDS011;43289;52.962;6.196;2023-09-12T08:30:48;77.07;;;47.85;;
57443;SDS011;43289;52.962;6.196;2023-09-12T08:33:15;76.15;;;46.78;;
57443;SDS011;43289;52.962;6.196;2023-09-12T08:35:41;66.63;;;44.30;;
57443;SDS011;43289;52.962;6.196;2023-09-12T08:38:07;62.55;;;43.58;;
57443;SDS011;43289;52.962;6.196;2023-09-12T08:40:33;65.20;;;43.60;;
57443;SDS011;43289;52.962;6.196;2023-09-12T08:43:00;57.75;;;39.72;;
57443;SDS011;43289;52.962;6.196;2023-09-12T08:45:29;64.03;;;42.92;;
57443;SDS011;43289;52.962;6.196;2023-09-12T08:47:56;59.50;;;41.63;;
57443;SDS011;43289;52.962;6.196;2023-09-12T08:50:26;59.97;;;41.35;;
57443;SDS011;43289;52.962;6.196;2023-09-12T08:53:00;61.72;;;43.38;;
57443;SDS011;43289;52.962;6.196;2023-09-12T08:55:27;52.10;;;39.30;;
57443;SDS011;43289;52.962;6.196;2023-09-12T08:57:54;54.53;;;39.03;;
57443;SDS011;43289;52.962;6.196;2023-09-12T09:00:21;56.13;;;42.67;;
57443;SDS011;43289;52.962;6.196;2023-09-12T09:02:51;58.45;;;40.80;;
57443;SDS011;43289;52.962;6.196;2023-09-12T09:05:20;54.53;;;37.92;;
57443;SDS011;43289;52.962;6.196;2023-09-12T09:07:51;57.42;;;42.60;;
57443;SDS011;43289;52.962;6.196;2023-09-12T09:10:19;60.60;;;45.08;;
57443;SDS011;43289;52.962;6.196;2023-09-12T09:12:46;61.63;;;45.65;;
57443;SDS011;43289;52.962;6.196;2023-09-12T09:15:25;54.67;;;40.58;;
57443;SDS011;43289;52.962;6.196;2023-09-12T09:17:52;67.65;;;43.50;;
57443;SDS011;43289;52.962;6.196;2023-09-12T09:20:27;63.22;;;44.22;;
57443;SDS011;43289;52.962;6.196;2023-09-12T09:22:57;58.65;;;41.53;;
57443;SDS011;43289;52.962;6.196;2023-09-12T09:25:28;51.60;;;38.25;;
57443;SDS011;43289;52.962;6.196;2023-09-12T09:27:55;56.40;;;42.67;;
57443;SDS011;43289;52.962;6.196;2023-09-12T09:30:38;54.67;;;39.65;;
57443;SDS011;43289;52.962;6.196;2023-09-12T09:33:08;56.92;;;41.05;;
57443;SDS011;43289;52.962;6.196;2023-09-12T09:35:34;57.60;;;44.63;;
57443;SDS011;43289;52.962;6.196;2023-09-12T09:38:01;57.70;;;43.10;;
57443;SDS011;43289;52.962;6.196;2023-09-12T09:40:27;51.05;;;40.63;;
57443;SDS011;43289;52.962;6.196;2023-09-12T09:42:58;61.10;;;45.85;;
57443;SDS011;43289;52.962;6.196;2023-09-12T09:45:25;62.55;;;45.85;;
57443;SDS011;43289;52.962;6.196;2023-09-12T09:48:04;56.28;;;44.80;;
57443;SDS011;43289;52.962;6.196;2023-09-12T09:50:39;54.28;;;39.85;;
57443;SDS011;43289;52.962;6.196;2023-09-12T09:53:10;59.30;;;40.67;;
57443;SDS011;43289;52.962;6.196;2023-09-12T09:55:37;57.90;;;43.00;;
57443;SDS011;43289;52.962;6.196;2023-09-12T09:58:07;52.33;;;41.08;;
57443;SDS011;43289;52.962;6.196;2023-09-12T10:00:34;53.03;;;41.10;;
57443;SDS011;43289;52.962;6.196;2023-09-12T10:03:05;52.40;;;39.85;;
57443;SDS011;43289;52.962;6.196;2023-09-12T10:05:32;53.80;;;41.88;;
57443;SDS011;43289;52.962;6.196;2023-09-12T10:07:58;55.38;;;40.20;;
57443;SDS011;43289;52.962;6.196;2023-09-12T10:10:25;54.95;;;40.40;;
57443;SDS011;43289;52.962;6.196;2023-09-12T10:12:55;59.50;;;41.33;;
57443;SDS011;43289;52.962;6.196;2023-09-12T10:15:21;53.15;;;40.63;;
57443;SDS011;43289;52.962;6.196;2023-09-12T10:17:59;51.78;;;41.42;;
57443;SDS011;43289;52.962;6.196;2023-09-12T10:20:38;54.60;;;39.90;;
57443;SDS011;43289;52.962;6.196;2023-09-12T10:23:23;49.95;;;38.65;;
57443;SDS011;43289;52.962;6.196;2023-09-12T10:25:55;43.28;;;35.35;;
57443;SDS011;43289;52.962;6.196;2023-09-12T10:28:25;43.20;;;33.92;;
57443;SDS011;43289;52.962;6.196;2023-09-12T10:30:53;44.38;;;34.13;;
57443;SDS011;43289;52.962;6.196;2023-09-12T10:33:19;33.85;;;28.77;;
57443;SDS011;43289;52.962;6.196;2023-09-12T10:35:46;33.35;;;29.35;;
57443;SDS011;43289;52.962;6.196;2023-09-12T10:38:13;40.83;;;30.77;;
57443;SDS011;43289;52.962;6.196;2023-09-12T10:40:39;43.05;;;31.10;;
57443;SDS011;43289;52.962;6.196;2023-09-12T10:43:09;39.63;;;31.27;;
57443;SDS011;43289;52.962;6.196;2023-09-12T10:45:36;38.60;;;30.55;;
57443;SDS011;43289;52.962;6.196;2023-09-12T10:48:03;27.90;;;23.42;;
57443;SDS011;43289;52.962;6.196;2023-09-12T10:50:29;25.75;;;20.35;;
57443;SDS011;43289;52.962;6.196;2023-09-12T10:52:56;28.15;;;22.85;;
57443;SDS011;43289;52.962;6.196;2023-09-12T10:55:33;28.83;;;23.25;;
57443;SDS011;43289;52.962;6.196;2023-09-12T11:00:29;26.50;;;22.88;;
57443;SDS011;43289;52.962;6.196;2023-09-12T11:02:58;28.65;;;21.27;;
57443;SDS011;43289;52.962;6.196;2023-09-12T11:07:59;24.65;;;19.30;;
57443;SDS011;43289;52.962;6.196;2023-09-12T11:10:26;24.63;;;20.50;;
57443;SDS011;43289;52.962;6.196;2023-09-12T11:12:53;22.65;;;19.30;;
57443;SDS011;43289;52.962;6.196;2023-09-12T11:15:20;21.65;;;14.27;;
57443;SDS011;43289;52.962;6.196;2023-09-12T11:17:47;17.52;;;15.05;;
57443;SDS011;43289;52.962;6.196;2023-09-12T11:20:15;20.85;;;16.55;;
57443;SDS011;43289;52.962;6.196;2023-09-12T11:22:47;18.92;;;15.18;;
57443;SDS011;43289;52.962;6.196;2023-09-12T11:25:23;17.65;;;12.90;;
57443;SDS011;43289;52.962;6.196;2023-09-12T11:30:26;21.65;;;14.75;;
57443;SDS011;43289;52.962;6.196;2023-09-12T11:32:56;13.77;;;11.40;;
57443;SDS011;43289;52.962;6.196;2023-09-12T11:35:26;12.18;;;9.55;;
57443;SDS011;43289;52.962;6.196;2023-09-12T11:37:54;12.25;;;9.95;;
57443;SDS011;43289;52.962;6.196;2023-09-12T11:40:25;14.90;;;11.45;;
57443;SDS011;43289;52.962;6.196;2023-09-12T11:42:51;16.52;;;11.27;;
57443;SDS011;43289;52.962;6.196;2023-09-12T11:45:18;15.07;;;10.93;;
57443;SDS011;43289;52.962;6.196;2023-09-12T11:47:44;18.10;;;10.48;;
57443;SDS011;43289;52.962;6.196;2023-09-12T11:52:59;13.85;;;10.63;;
57443;SDS011;43289;52.962;6.196;2023-09-12T11:55:25;10.95;;;8.25;;
57443;SDS011;43289;52.962;6.196;2023-09-12T11:57:51;13.15;;;8.75;;
57443;SDS011;43289;52.962;6.196;2023-09-12T12:00:18;11.18;;;9.98;;
57443;SDS011;43289;52.962;6.196;2023-09-12T12:02:45;16.70;;;10.50;;
57443;SDS011;43289;52.962;6.196;2023-09-12T12:05:11;13.95;;;11.00;;
57443;SDS011;43289;52.962;6.196;2023-09-12T12:07:38;14.63;;;11.43;;
57443;SDS011;43289;52.962;6.196;2023-09-12T12:10:04;15.73;;;12.00;;
57443;SDS011;43289;52.962;6.196;2023-09-12T12:12:31;15.48;;;11.70;;
57443;SDS011;43289;52.962;6.196;2023-09-12T12:14:57;13.85;;;10.75;;
57443;SDS011;43289;52.962;6.196;2023-09-12T12:17:23;14.93;;;11.25;;
57443;SDS011;43289;52.962;6.196;2023-09-12T12:19:49;13.63;;;10.60;;
57443;SDS011;43289;52.962;6.196;2023-09-12T12:22:15;14.50;;;11.65;;
57443;SDS011;43289;52.962;6.196;2023-09-12T12:24:42;17.00;;;11.30;;
57443;SDS011;43289;52.962;6.196;2023-09-12T12:27:08;16.63;;;11.60;;
57443;SDS011;43289;52.962;6.196;2023-09-12T12:29:36;19.85;;;12.27;;
57443;SDS011;43289;52.962;6.196;2023-09-12T12:32:04;15.60;;;10.55;;
57443;SDS011;43289;52.962;6.196;2023-09-12T12:34:30;11.10;;;7.82;;
57443;SDS011;43289;52.962;6.196;2023-09-12T12:36:57;13.20;;;9.65;;
57443;SDS011;43289;52.962;6.196;2023-09-12T12:39:23;14.75;;;8.65;;
57443;SDS011;43289;52.962;6.196;2023-09-12T12:41:51;9.85;;;7.65;;
57443;SDS011;43289;52.962;6.196;2023-09-12T12:44:18;9.65;;;7.65;;
57443;SDS011;43289;52.962;6.196;2023-09-12T12:47:03;12.70;;;9.43;;
57443;SDS011;43289;52.962;6.196;2023-09-12T12:49:35;14.13;;;8.00;;
57443;SDS011;43289;52.962;6.196;2023-09-12T12:52:02;11.82;;;8.88;;
57443;SDS011;43289;52.962;6.196;2023-09-12T12:54:31;14.02;;;9.60;;
57443;SDS011;43289;52.962;6.196;2023-09-12T12:56:58;9.55;;;7.55;;
57443;SDS011;43289;52.962;6.196;2023-09-12T12:59:24;10.82;;;7.22;;
57443;SDS011;43289;52.962;6.196;2023-09-12T13:01:50;10.68;;;7.55;;
57443;SDS011;43289;52.962;6.196;2023-09-12T13:04:16;11.63;;;7.72;;
57443;SDS011;43289;52.962;6.196;2023-09-12T13:06:42;11.18;;;7.82;;
57443;SDS011;43289;52.962;6.196;2023-09-12T13:09:08;10.18;;;7.45;;
57443;SDS011;43289;52.962;6.196;2023-09-12T13:11:36;11.30;;;9.07;;
57443;SDS011;43289;52.962;6.196;2023-09-12T13:14:03;15.48;;;9.77;;
57443;SDS011;43289;52.962;6.196;2023-09-12T13:16:34;12.77;;;9.63;;
57443;SDS011;43289;52.962;6.196;2023-09-12T13:19:00;15.38;;;10.20;;
57443;SDS011;43289;52.962;6.196;2023-09-12T13:21:26;14.68;;;10.48;;
57443;SDS011;43289;52.962;6.196;2023-09-12T13:23:53;11.85;;;9.52;;
57443;SDS011;43289;52.962;6.196;2023-09-12T13:26:19;14.15;;;9.57;;
57443;SDS011;43289;52.962;6.196;2023-09-12T13:28:45;10.95;;;7.53;;
57443;SDS011;43289;52.962;6.196;2023-09-12T13:31:11;10.30;;;8.02;;
57443;SDS011;43289;52.962;6.196;2023-09-12T13:33:37;10.77;;;7.25;;
57443;SDS011;43289;52.962;6.196;2023-09-12T13:36:03;9.38;;;7.45;;
57443;SDS011;43289;52.962;6.196;2023-09-12T13:38:29;11.05;;;7.75;;
57443;SDS011;43289;52.962;6.196;2023-09-12T13:40:56;13.60;;;9.18;;
57443;SDS011;43289;52.962;6.196;2023-09-12T13:43:22;14.50;;;9.52;;
57443;SDS011;43289;52.962;6.196;2023-09-12T13:45:48;12.32;;;9.15;;
57443;SDS011;43289;52.962;6.196;2023-09-12T13:48:15;12.30;;;8.82;;
57443;SDS011;43289;52.962;6.196;2023-09-12T13:50:41;10.48;;;9.07;;
57443;SDS011;43289;52.962;6.196;2023-09-12T13:53:09;11.65;;;9.82;;
57443;SDS011;43289;52.962;6.196;2023-09-12T13:55:36;12.25;;;10.10;;
57443;SDS011;43289;52.962;6.196;2023-09-12T13:58:02;13.95;;;10.13;;
57443;SDS011;43289;52.962;6.196;2023-09-12T14:00:29;14.07;;;11.27;;
57443;SDS011;43289;52.962;6.196;2023-09-12T14:02:55;11.70;;;10.35;;
57443;SDS011;43289;52.962;6.196;2023-09-12T14:05:21;13.63;;;11.18;;
57443;SDS011;43289;52.962;6.196;2023-09-12T14:07:47;11.85;;;9.68;;
57443;SDS011;43289;52.962;6.196;2023-09-12T14:10:13;10.68;;;9.40;;
57443;SDS011;43289;52.962;6.196;2023-09-12T14:12:39;13.35;;;9.40;;
57443;SDS011;43289;52.962;6.196;2023-09-12T14:15:05;14.18;;;10.25;;
57443;SDS011;43289;52.962;6.196;2023-09-12T14:17:32;12.15;;;10.45;;
57443;SDS011;43289;52.962;6.196;2023-09-12T14:19:58;15.10;;;10.82;;
57443;SDS011;43289;52.962;6.196;2023-09-12T14:22:24;16.35;;;12.43;;
57443;SDS011;43289;52.962;6.196;2023-09-12T14:24:50;12.77;;;11.18;;
57443;SDS011;43289;52.962;6.196;2023-09-12T14:27:16;14.02;;;11.50;;
57443;SDS011;43289;52.962;6.196;2023-09-12T14:29:42;13.07;;;11.05;;
57443;SDS011;43289;52.962;6.196;2023-09-12T14:32:11;15.00;;;11.15;;
57443;SDS011;43289;52.962;6.196;2023-09-12T14:34:37;13.45;;;11.60;;
57443;SDS011;43289;52.962;6.196;2023-09-12T14:37:03;11.90;;;10.23;;
57443;SDS011;43289;52.962;6.196;2023-09-12T14:39:29;12.35;;;10.48;;
57443;SDS011;43289;52.962;6.196;2023-09-12T14:41:55;13.50;;;11.10;;
57443;SDS011;43289;52.962;6.196;2023-09-12T14:44:22;12.57;;;11.05;;
57443;SDS011;43289;52.962;6.196;2023-09-12T14:46:48;13.57;;;10.35;;
57443;SDS011;43289;52.962;6.196;2023-09-12T14:49:15;13.45;;;11.88;;
57443;SDS011;43289;52.962;6.196;2023-09-12T14:51:41;12.85;;;10.48;;
57443;SDS011;43289;52.962;6.196;2023-09-12T14:54:07;13.20;;;11.68;;
57443;SDS011;43289;52.962;6.196;2023-09-12T14:56:33;13.10;;;10.50;;
57443;SDS011;43289;52.962;6.196;2023-09-12T14:59:00;11.75;;;9.52;;
57443;SDS011;43289;52.962;6.196;2023-09-12T15:01:26;11.77;;;9.57;;
57443;SDS011;43289;52.962;6.196;2023-09-12T15:03:52;15.10;;;9.50;;
57443;SDS011;43289;52.962;6.196;2023-09-12T15:06:19;12.38;;;9.68;;
57443;SDS011;43289;52.962;6.196;2023-09-12T15:08:45;10.98;;;8.90;;
57443;SDS011;43289;52.962;6.196;2023-09-12T15:11:11;10.02;;;8.07;;
57443;SDS011;43289;52.962;6.196;2023-09-12T15:13:37;10.43;;;8.55;;
57443;SDS011;43289;52.962;6.196;2023-09-12T15:16:04;11.55;;;8.60;;
57443;SDS011;43289;52.962;6.196;2023-09-12T15:18:31;10.60;;;7.93;;
57443;SDS011;43289;52.962;6.196;2023-09-12T15:20:57;12.73;;;9.43;;
57443;SDS011;43289;52.962;6.196;2023-09-12T15:23:23;13.02;;;8.25;;
57443;SDS011;43289;52.962;6.196;2023-09-12T15:25:50;10.82;;;7.97;;
57443;SDS011;43289;52.962;6.196;2023-09-12T15:28:15;11.23;;;8.35;;
57443;SDS011;43289;52.962;6.196;2023-09-12T15:30:42;9.52;;;8.10;;
57443;SDS011;43289;52.962;6.196;2023-09-12T15:33:08;9.52;;;7.53;;
57443;SDS011;43289;52.962;6.196;2023-09-12T15:35:34;9.88;;;7.88;;
57443;SDS011;43289;52.962;6.196;2023-09-12T15:38:00;11.65;;;7.55;;
57443;SDS011;43289;52.962;6.196;2023-09-12T15:40:26;10.10;;;7.30;;
57443;SDS011;43289;52.962;6.196;2023-09-12T15:42:53;10.43;;;8.63;;
57443;SDS011;43289;52.962;6.196;2023-09-12T15:45:19;9.77;;;6.40;;
57443;SDS011;43289;52.962;6.196;2023-09-12T15:47:45;8.00;;;6.32;;
57443;SDS011;43289;52.962;6.196;2023-09-12T15:50:12;11.88;;;6.53;;
57443;SDS011;43289;52.962;6.196;2023-09-12T15:52:38;8.18;;;6.55;;
57443;SDS011;43289;52.962;6.196;2023-09-12T15:55:09;11.23;;;7.15;;
57443;SDS011;43289;52.962;6.196;2023-09-12T15:57:36;10.95;;;6.60;;
57443;SDS011;43289;52.962;6.196;2023-09-12T16:00:05;8.23;;;6.07;;
57443;SDS011;43289;52.962;6.196;2023-09-12T16:02:36;9.40;;;6.70;;
57443;SDS011;43289;52.962;6.196;2023-09-12T16:05:02;9.35;;;6.68;;
57443;SDS011;43289;52.962;6.196;2023-09-12T16:07:28;11.48;;;7.25;;
57443;SDS011;43289;52.962;6.196;2023-09-12T16:09:54;9.10;;;6.25;;
57443;SDS011;43289;52.962;6.196;2023-09-12T16:12:20;8.55;;;6.45;;
57443;SDS011;43289;52.962;6.196;2023-09-12T16:14:46;7.88;;;6.05;;
57443;SDS011;43289;52.962;6.196;2023-09-12T16:17:12;11.15;;;6.20;;
57443;SDS011;43289;52.962;6.196;2023-09-12T16:19:38;9.38;;;6.15;;
57443;SDS011;43289;52.962;6.196;2023-09-12T16:22:04;7.97;;;5.57;;
57443;SDS011;43289;52.962;6.196;2023-09-12T16:24:31;9.32;;;6.57;;
57443;SDS011;43289;52.962;6.196;2023-09-12T16:26:57;7.63;;;5.78;;
57443;SDS011;43289;52.962;6.196;2023-09-12T16:29:26;9.80;;;5.75;;
57443;SDS011;43289;52.962;6.196;2023-09-12T16:31:52;7.90;;;5.20;;
57443;SDS011;43289;52.962;6.196;2023-09-12T16:34:18;10.40;;;5.72;;
57443;SDS011;43289;52.962;6.196;2023-09-12T16:36:44;7.45;;;5.72;;
57443;SDS011;43289;52.962;6.196;2023-09-12T16:39:14;9.45;;;5.50;;
57443;SDS011;43289;52.962;6.196;2023-09-12T16:41:43;10.18;;;5.30;;
57443;SDS011;43289;52.962;6.196;2023-09-12T16:44:09;7.15;;;4.88;;
57443;SDS011;43289;52.962;6.196;2023-09-12T16:46:35;8.55;;;5.20;;
57443;SDS011;43289;52.962;6.196;2023-09-12T16:49:03;9.98;;;5.55;;
57443;SDS011;43289;52.962;6.196;2023-09-12T16:51:29;7.10;;;5.10;;